Time;durP1;ratioP1;P1;durP2;ratioP2;P2;SDS_P1;SDS_P2;PMS_P1;PMS_P2;Temp;Humidity;BMP_temperature;BMP_pressure;BME280_temperature;BME280_humidity;BME280_pressure;Samples;Min_cycle;Max_cycle;Signal;HPM_P1;HPM_P2
2022/12/25 00:00:04;;;;;;;29.10;6.88;;;9.50;99.90;;;;;;4960047;28;20035;-87
2022/12/25 00:02:29;;;;;;;23.15;6.68;;;9.40;99.90;;;;;;4975482;28;20026;-87
2022/12/25 00:04:55;;;;;;;26.60;7.05;;;9.40;99.90;;;;;;4959436;28;20030;-87
2022/12/25 00:07:21;;;;;;;26.92;7.10;;;9.50;99.90;;;;;;4960631;28;20058;-87
2022/12/25 00:09:47;;;;;;;25.60;7.55;;;9.50;99.90;;;;;;4959621;28;20049;-87
2022/12/25 00:12:12;;;;;;;32.95;7.45;;;9.50;99.90;;;;;;4977645;28;20369;-87
2022/12/25 00:14:38;;;;;;;31.23;7.45;;;9.50;99.90;;;;;;4960288;28;20035;-87
2022/12/25 00:17:04;;;;;;;31.20;6.70;;;9.50;99.90;;;;;;4975362;28;20494;-87
2022/12/25 00:19:29;;;;;;;25.98;6.72;;;9.50;99.90;;;;;;4958854;28;20035;-87
2022/12/25 00:22:01;;;;;;;27.52;6.95;;;9.50;99.90;;;;;;4959179;28;20109;-87
2022/12/25 00:24:27;;;;;;;21.98;6.63;;;9.50;99.90;;;;;;4975273;28;20037;-87
2022/12/25 00:26:59;;;;;;;36.53;7.00;;;9.50;99.90;;;;;;4958709;28;20043;-87
2022/12/25 00:29:26;;;;;;;23.95;6.07;;;9.60;99.90;;;;;;4975988;28;20041;-87
2022/12/25 00:31:52;;;;;;;25.77;6.95;;;9.60;99.90;;;;;;4975091;28;20034;-88
2022/12/25 00:34:24;;;;;;;32.20;6.85;;;9.60;99.90;;;;;;4975044;28;20034;-88
2022/12/25 00:36:51;;;;;;;29.88;7.53;;;9.60;99.90;;;;;;4958684;28;20046;-88
2022/12/25 00:39:17;;;;;;;26.30;6.95;;;9.60;99.90;;;;;;4958767;28;20022;-88
2022/12/25 00:44:26;;;;;;;24.05;6.15;;;9.70;99.90;;;;;;4976333;28;20037;-88
2022/12/25 00:46:52;;;;;;;25.05;6.75;;;9.70;99.90;;;;;;4975683;28;20023;-88
2022/12/25 00:49:21;;;;;;;26.27;7.15;;;9.70;99.90;;;;;;4974510;28;20037;-88
2022/12/25 00:51:51;;;;;;;33.92;7.30;;;9.70;99.90;;;;;;4974491;28;20106;-88
2022/12/25 00:54:17;;;;;;;32.00;7.50;;;9.70;99.90;;;;;;4974752;28;20026;-88
2022/12/25 00:56:43;;;;;;;25.15;6.53;;;9.70;99.90;;;;;;4958386;28;20037;-88
2022/12/25 00:59:09;;;;;;;30.52;7.45;;;9.70;99.90;;;;;;4958201;28;20485;-88
2022/12/25 01:01:37;;;;;;;23.33;5.90;;;9.70;99.90;;;;;;4974399;28;20037;-88
2022/12/25 01:04:27;;;;;;;27.52;7.18;;;9.70;99.90;;;;;;4974550;28;20085;-88
2022/12/25 01:06:53;;;;;;;32.65;7.82;;;9.70;99.90;;;;;;4975365;28;20039;-84
2022/12/25 01:12:03;;;;;;;29.20;7.15;;;9.70;99.90;;;;;;4975937;28;20432;-84
2022/12/25 01:14:28;;;;;;;19.30;6.55;;;9.70;99.90;;;;;;4959000;28;20031;-84
2022/12/25 01:16:54;;;;;;;29.70;8.15;;;9.80;99.90;;;;;;4957642;28;20019;-84
2022/12/25 01:19:20;;;;;;;27.10;7.63;;;9.80;99.90;;;;;;4957523;28;20476;-84
2022/12/25 01:21:45;;;;;;;22.17;7.75;;;9.80;99.90;;;;;;4974001;28;20026;-84
2022/12/25 01:24:11;;;;;;;25.58;6.78;;;9.80;99.90;;;;;;4958295;28;20034;-84
2022/12/25 01:26:37;;;;;;;20.98;6.15;;;9.80;99.90;;;;;;4954607;28;20101;-84
2022/12/25 01:29:02;;;;;;;21.02;6.88;;;9.80;99.90;;;;;;4957579;28;20467;-84
2022/12/25 01:31:28;;;;;;;26.40;7.20;;;9.80;99.90;;;;;;4973801;28;20053;-83
2022/12/25 01:33:54;;;;;;;25.85;6.75;;;9.90;99.90;;;;;;4973628;28;20110;-84
2022/12/25 01:36:22;;;;;;;21.10;7.55;;;9.90;99.90;;;;;;4973582;28;20384;-84
2022/12/25 01:38:49;;;;;;;27.95;7.15;;;9.80;99.90;;;;;;4973406;28;20019;-83
2022/12/25 01:41:17;;;;;;;32.00;8.27;;;9.80;99.90;;;;;;4975549;28;20019;-83
2022/12/25 01:44:01;;;;;;;28.70;7.55;;;9.90;99.90;;;;;;4974302;28;20027;-84
2022/12/25 01:46:28;;;;;;;25.65;7.32;;;9.90;99.90;;;;;;4975308;28;20023;-88
2022/12/25 01:48:57;;;;;;;26.52;7.25;;;9.80;99.90;;;;;;4974279;28;20078;-89
2022/12/25 01:51:28;;;;;;;23.77;6.88;;;9.90;99.90;;;;;;4979173;28;20026;-88
2022/12/25 01:53:58;;;;;;;25.88;7.85;;;9.90;99.90;;;;;;4978138;28;20026;-88
2022/12/25 01:56:25;;;;;;;26.15;7.72;;;9.80;99.90;;;;;;4977683;28;20026;-88
2022/12/25 01:58:52;;;;;;;28.25;7.32;;;9.90;99.90;;;;;;4961702;28;20118;-84
2022/12/25 02:01:18;;;;;;;20.88;7.20;;;9.90;99.90;;;;;;4977129;28;20029;-84
2022/12/25 02:03:43;;;;;;;23.30;7.53;;;9.90;99.90;;;;;;4961148;28;20031;-82
2022/12/25 02:06:09;;;;;;;24.60;8.05;;;9.90;99.90;;;;;;4961147;28;20030;-82
2022/12/25 02:08:35;;;;;;;22.02;7.93;;;9.90;99.90;;;;;;4961110;28;20035;-84
2022/12/25 02:11:01;;;;;;;21.85;7.10;;;9.90;99.90;;;;;;4962405;28;20027;-84
2022/12/25 02:13:27;;;;;;;18.25;7.03;;;9.90;99.90;;;;;;4961152;28;20038;-88
2022/12/25 02:16:12;;;;;;;20.70;7.22;;;9.90;99.90;;;;;;4977581;28;20037;-88
2022/12/25 02:18:50;;;;;;;25.38;7.60;;;10.00;99.90;;;;;;4977505;28;20038;-88
2022/12/25 02:21:22;;;;;;;19.27;6.88;;;9.90;99.90;;;;;;4977349;28;20019;-88
2022/12/25 02:24:11;;;;;;;22.35;7.50;;;10.00;99.90;;;;;;4977409;28;20601;-88
2022/12/25 02:27:04;;;;;;;22.48;8.25;;;9.90;99.90;;;;;;4971141;28;20049;-88
2022/12/25 02:29:38;;;;;;;32.03;9.18;;;9.90;99.90;;;;;;4977312;28;20034;-88
2022/12/25 02:32:29;;;;;;;26.80;8.10;;;9.90;99.90;;;;;;4976875;28;20062;-84
2022/12/25 02:35:00;;;;;;;20.42;7.53;;;9.90;99.90;;;;;;4978012;28;20030;-84
2022/12/25 02:37:39;;;;;;;20.20;7.28;;;9.90;99.90;;;;;;4976548;28;20050;-84
2022/12/25 02:40:18;;;;;;;25.33;8.18;;;9.90;99.90;;;;;;4977868;28;20027;-84
2022/12/25 03:08:50;;;;;;;23.27;7.18;;;9.80;99.90;;;;;;4978259;28;20041;-88
2022/12/25 03:11:31;;;;;;;23.75;8.15;;;9.80;99.90;;;;;;4977964;28;20030;-88
2022/12/25 03:17:00;;;;;;;18.63;7.55;;;9.80;99.90;;;;;;4978224;28;20034;-88
2022/12/25 03:27:54;;;;;;;19.30;7.07;;;9.80;99.90;;;;;;4974380;28;20053;-88
2022/12/25 03:33:35;;;;;;;20.65;7.30;;;9.80;99.90;;;;;;4978352;28;20046;-88
2022/12/25 03:36:12;;;;;;;20.15;6.65;;;9.80;99.90;;;;;;4975916;28;20031;-88
2022/12/25 04:37:55;;;;;;;19.08;6.03;;;9.80;99.90;;;;;;4985384;28;20058;-87
2022/12/25 04:40:20;;;;;;;13.38;5.45;;;9.80;99.90;;;;;;4983435;28;20038;-87
2022/12/25 04:42:50;;;;;;;14.40;5.47;;;9.80;99.90;;;;;;4985031;28;20385;-87
2022/12/25 04:45:16;;;;;;;14.48;5.30;;;9.80;99.90;;;;;;4975159;28;20025;-82
2022/12/25 04:47:41;;;;;;;14.38;6.30;;;9.80;99.90;;;;;;4958095;28;20015;-82
2022/12/25 04:50:07;;;;;;;18.10;5.90;;;9.90;99.90;;;;;;4958976;28;20479;-82
2022/12/25 04:52:36;;;;;;;13.93;5.38;;;9.90;99.90;;;;;;4974196;28;20030;-82
2022/12/25 04:55:02;;;;;;;19.58;6.70;;;9.90;99.90;;;;;;4975400;28;20027;-82
2022/12/25 04:57:28;;;;;;;20.00;6.93;;;9.90;99.90;;;;;;4974249;28;20034;-83
2022/12/25 04:59:54;;;;;;;16.23;6.35;;;9.90;99.90;;;;;;4974138;28;20388;-86
2022/12/25 05:02:19;;;;;;;12.50;5.53;;;9.90;99.90;;;;;;4975774;28;20114;-86
2022/12/25 05:04:45;;;;;;;13.80;6.05;;;9.90;99.90;;;;;;4958413;28;20213;-87
2022/12/25 05:07:11;;;;;;;12.48;6.35;;;9.90;99.90;;;;;;4974641;28;20556;-87
2022/12/25 05:09:40;;;;;;;17.50;5.40;;;9.90;99.90;;;;;;4958371;28;20117;-87
2022/12/25 05:12:07;;;;;;;16.27;4.90;;;9.80;99.90;;;;;;4958620;28;20564;-87
2022/12/25 05:14:38;;;;;;;14.23;5.63;;;9.80;99.90;;;;;;4958588;28;20041;-87
2022/12/25 05:17:06;;;;;;;16.77;5.40;;;9.80;99.90;;;;;;4975978;28;20364;-86
2022/12/25 05:19:33;;;;;;;10.05;5.15;;;9.80;99.90;;;;;;4974355;28;20027;-87
2022/12/25 05:21:58;;;;;;;10.85;4.97;;;9.80;99.90;;;;;;4958216;28;20531;-87
2022/12/25 05:24:26;;;;;;;14.45;5.40;;;9.80;99.90;;;;;;4957535;28;20027;-87
2022/12/25 05:26:52;;;;;;;14.40;5.28;;;9.80;99.90;;;;;;4957920;28;20053;-87
2022/12/25 05:29:18;;;;;;;12.18;5.40;;;9.80;99.90;;;;;;4974413;28;20027;-88
2022/12/25 05:31:43;;;;;;;13.93;5.28;;;9.70;99.90;;;;;;4974156;28;20035;-87
2022/12/25 05:34:09;;;;;;;11.73;5.35;;;9.70;99.90;;;;;;4958128;28;20031;-83
2022/12/25 05:36:38;;;;;;;10.60;4.35;;;9.70;99.90;;;;;;4974933;28;20038;-83
2022/12/25 05:39:03;;;;;;;14.70;5.95;;;9.70;99.90;;;;;;4973564;28;20105;-83
2022/12/25 05:41:29;;;;;;;13.52;4.82;;;9.70;99.90;;;;;;4973737;28;20125;-83
2022/12/25 05:43:55;;;;;;;11.07;4.57;;;9.70;99.90;;;;;;4975033;28;20033;-83
2022/12/25 05:46:20;;;;;;;12.60;5.55;;;9.70;99.90;;;;;;4957544;28;20031;-83
2022/12/25 05:48:46;;;;;;;13.93;4.90;;;9.70;99.90;;;;;;4992711;28;20507;-82
2022/12/25 05:51:13;;;;;;;15.50;5.15;;;9.60;99.90;;;;;;4993395;28;20349;-87
2022/12/25 05:53:41;;;;;;;12.00;4.68;;;9.60;99.90;;;;;;5010046;28;20027;-86
2022/12/25 05:56:08;;;;;;;11.70;4.47;;;9.60;99.90;;;;;;5010479;28;20109;-87
2022/12/25 05:58:35;;;;;;;10.05;4.75;;;9.60;99.90;;;;;;4995692;28;20026;-87
2022/12/25 06:01:01;;;;;;;12.63;5.15;;;9.60;99.90;;;;;;5012039;28;20360;-87
2022/12/25 06:03:27;;;;;;;12.85;5.32;;;9.50;99.90;;;;;;4979762;28;20025;-87
2022/12/25 06:05:53;;;;;;;12.18;5.32;;;9.50;99.90;;;;;;4994206;28;20392;-86
2022/12/25 06:08:19;;;;;;;11.38;5.20;;;9.60;99.90;;;;;;4993316;28;20467;-87
2022/12/25 06:10:45;;;;;;;16.20;5.95;;;9.50;99.90;;;;;;5010013;28;20063;-87
2022/12/25 06:13:11;;;;;;;17.98;5.72;;;9.50;99.90;;;;;;5009560;28;20029;-87
2022/12/25 06:16:02;;;;;;;11.88;6.05;;;9.50;99.90;;;;;;4994015;28;20019;-86
2022/12/25 06:18:33;;;;;;;15.07;5.97;;;9.50;99.90;;;;;;5009249;28;20444;-87
2022/12/25 06:20:59;;;;;;;12.30;5.78;;;9.50;99.90;;;;;;4994195;28;20380;-87
2022/12/25 06:23:30;;;;;;;13.45;6.15;;;9.50;99.90;;;;;;4976810;28;20022;-87
2022/12/25 06:26:12;;;;;;;13.73;5.78;;;9.50;99.90;;;;;;5009357;28;20019;-87
2022/12/25 06:28:37;;;;;;;12.52;6.38;;;9.50;99.90;;;;;;4992994;28;20096;-87
2022/12/25 06:31:08;;;;;;;13.23;6.13;;;9.50;99.90;;;;;;4993039;28;20026;-87
2022/12/25 06:33:34;;;;;;;;;;;9.50;99.90;;;;;;5009839;28;20065;-87
2022/12/25 06:36:16;;;;;;;19.00;6.82;;;9.50;99.90;;;;;;4995941;28;19918;-87
2022/12/25 06:38:42;;;;;;;15.10;6.68;;;9.50;99.90;;;;;;5013116;28;20025;-87
2022/12/25 06:41:10;;;;;;;18.33;7.72;;;9.50;99.90;;;;;;4996703;28;20022;-87
2022/12/25 06:43:37;;;;;;;15.73;7.07;;;9.50;99.90;;;;;;5012976;28;20029;-87
2022/12/25 06:46:12;;;;;;;16.08;6.75;;;9.50;99.90;;;;;;4996866;28;20026;-87
2022/12/25 06:48:39;;;;;;;13.57;6.78;;;9.50;99.90;;;;;;4981652;28;20033;-87
2022/12/25 06:51:06;;;;;;;15.32;6.40;;;9.40;99.90;;;;;;4998003;28;20022;-87
2022/12/25 06:53:37;;;;;;;15.90;7.15;;;9.50;99.90;;;;;;4996591;28;20030;-88
2022/12/25 06:56:15;;;;;;;15.73;6.55;;;9.50;99.90;;;;;;4996582;28;20035;-88
2022/12/25 06:58:46;;;;;;;20.92;6.93;;;9.40;99.90;;;;;;5012307;28;20046;-82
2022/12/25 07:01:15;;;;;;;;;;;9.40;99.90;;;;;;5013627;28;20033;-82
2022/12/25 07:03:43;;;;;;;20.55;9.05;;;9.50;99.90;;;;;;5011935;28;19906;-82
2022/12/25 07:06:09;;;;;;;14.15;7.75;;;9.40;99.90;;;;;;4995737;28;20118;-82
2022/12/25 07:09:12;;;;;;;14.52;6.93;;;9.50;99.90;;;;;;4979273;28;20054;-82
2022/12/25 07:11:38;;;;;;;15.25;7.15;;;9.50;99.90;;;;;;4995444;28;20026;-82
2022/12/25 07:14:03;;;;;;;18.15;7.53;;;9.50;99.90;;;;;;4996638;28;20026;-82
2022/12/25 07:16:29;;;;;;;15.85;7.07;;;9.50;99.90;;;;;;5011597;28;20388;-82
2022/12/25 07:18:57;;;;;;;15.40;6.85;;;9.50;99.90;;;;;;4978945;28;20026;-82
2022/12/25 07:21:23;;;;;;;17.13;7.28;;;9.50;99.90;;;;;;4996449;28;20040;-82
2022/12/25 07:24:07;;;;;;;14.80;7.15;;;9.60;99.90;;;;;;4995104;28;20133;-82
2022/12/25 07:26:33;;;;;;;18.75;7.38;;;9.60;99.90;;;;;;4996200;28;20029;-83
2022/12/25 07:28:59;;;;;;;15.65;7.32;;;9.60;99.90;;;;;;4995395;28;20030;-82
2022/12/25 07:31:25;;;;;;;17.33;8.15;;;9.60;99.90;;;;;;4995280;28;20027;-82
2022/12/25 07:33:53;;;;;;;18.60;7.38;;;9.60;99.90;;;;;;4995553;28;20084;-82
2022/12/25 07:36:19;;;;;;;19.65;7.88;;;9.60;99.90;;;;;;4996233;28;20023;-82
2022/12/25 07:41:25;;;;;;;16.02;7.32;;;9.60;99.90;;;;;;4993961;28;20475;-84
2022/12/25 07:43:54;;;;;;;13.98;6.60;;;9.60;99.90;;;;;;4995622;28;20451;-85
2022/12/25 07:46:24;;;;;;;12.95;6.82;;;9.70;99.90;;;;;;4994993;28;20053;-84
2022/12/25 07:48:50;;;;;;;14.07;6.97;;;9.70;99.90;;;;;;4996239;28;20513;-84
2022/12/25 07:51:16;;;;;;;18.10;7.10;;;9.70;99.90;;;;;;4995445;28;20030;-84
2022/12/25 07:53:46;;;;;;;14.20;6.28;;;9.70;99.90;;;;;;4995909;28;20018;-84
2022/12/25 07:56:18;;;;;;;11.27;6.05;;;9.70;99.90;;;;;;4995253;28;20455;-85
2022/12/25 07:58:47;;;;;;;15.73;6.53;;;9.70;99.90;;;;;;4996533;28;20095;-84
2022/12/25 08:01:16;;;;;;;16.13;6.70;;;9.70;99.90;;;;;;4995911;28;20497;-85
2022/12/25 08:03:43;;;;;;;13.98;5.90;;;9.70;99.90;;;;;;4998116;28;20101;-84
2022/12/25 08:06:10;;;;;;;13.20;5.78;;;9.70;99.90;;;;;;4983015;28;20022;-84
2022/12/25 08:08:37;;;;;;;18.65;7.25;;;9.70;99.90;;;;;;5003595;28;20033;-84
2022/12/25 08:11:05;;;;;;;12.27;5.70;;;9.80;99.90;;;;;;5001609;28;20010;-84
2022/12/25 08:13:32;;;;;;;12.50;5.93;;;9.80;99.90;;;;;;5013969;28;20053;-84
2022/12/25 08:16:00;;;;;;;12.65;5.45;;;9.80;99.90;;;;;;4998663;28;20026;-84
2022/12/25 08:18:27;;;;;;;17.65;6.40;;;9.80;99.90;;;;;;4997096;28;20046;-85
2022/12/25 08:20:52;;;;;;;11.13;5.75;;;9.80;99.90;;;;;;4999107;28;20058;-85
2022/12/25 08:23:18;;;;;;;13.63;6.65;;;9.80;99.90;;;;;;4996504;28;20037;-84
2022/12/25 08:25:44;;;;;;;10.90;5.55;;;9.80;99.90;;;;;;4981093;28;20022;-84
2022/12/25 08:28:09;;;;;;;11.90;5.22;;;9.80;99.90;;;;;;4978660;28;20054;-84
2022/12/25 08:30:37;;;;;;;9.68;4.90;;;9.80;99.90;;;;;;4994470;28;20104;-85
2022/12/25 08:33:03;;;;;;;13.10;5.85;;;9.80;99.90;;;;;;4995827;28;20101;-84
2022/12/25 08:35:31;;;;;;;11.32;5.07;;;9.80;99.90;;;;;;4994512;28;20066;-84
2022/12/25 08:37:57;;;;;;;14.55;5.53;;;9.80;99.90;;;;;;4995557;28;20152;-84
2022/12/25 08:40:23;;;;;;;10.30;4.53;;;9.80;99.90;;;;;;4978202;28;20140;-84
2022/12/25 08:42:48;;;;;;;12.38;4.93;;;9.90;99.90;;;;;;4978120;28;20022;-85
2022/12/25 08:45:14;;;;;;;10.30;4.80;;;9.90;99.90;;;;;;4994049;28;20084;-88
2022/12/25 08:47:40;;;;;;;12.55;4.60;;;9.90;99.90;;;;;;4976619;28;20467;-84
2022/12/25 08:50:06;;;;;;;11.80;4.78;;;9.90;99.90;;;;;;4959112;28;20038;-84
2022/12/25 08:52:32;;;;;;;10.77;4.60;;;9.90;99.90;;;;;;4980532;28;20041;-85
2022/12/25 08:54:57;;;;;;;11.48;5.18;;;9.90;99.90;;;;;;4977766;28;20050;-85
2022/12/25 08:57:23;;;;;;;9.45;5.07;;;9.90;99.90;;;;;;4977644;28;20026;-85
2022/12/25 08:59:49;;;;;;;11.02;4.80;;;9.90;99.90;;;;;;4974674;28;20061;-84
2022/12/25 09:02:15;;;;;;;11.95;4.43;;;9.90;99.90;;;;;;4990039;28;20053;-85
2022/12/25 09:04:44;;;;;;;10.55;5.05;;;9.90;99.90;;;;;;4977844;28;20060;-84
2022/12/25 09:07:10;;;;;;;12.68;5.28;;;9.90;99.90;;;;;;4977651;28;20026;-84
2022/12/25 09:09:36;;;;;;;10.45;4.88;;;9.90;99.90;;;;;;4977819;28;20056;-84
2022/12/25 09:12:01;;;;;;;10.57;5.07;;;9.90;99.90;;;;;;4994036;28;20045;-84
2022/12/25 09:14:27;;;;;;;10.95;4.60;;;9.90;99.90;;;;;;4977421;28;20121;-85
2022/12/25 09:16:53;;;;;;;11.65;4.30;;;9.90;99.90;;;;;;4977797;28;20030;-84
2022/12/25 09:19:20;;;;;;;14.10;5.35;;;9.90;99.90;;;;;;4977785;28;20482;-84
2022/12/25 09:21:46;;;;;;;9.35;4.00;;;9.90;99.90;;;;;;4994716;28;20030;-84
2022/12/25 09:24:12;;;;;;;9.07;4.20;;;9.90;99.90;;;;;;4974393;28;20026;-84
2022/12/25 09:26:38;;;;;;;13.23;4.32;;;9.90;99.90;;;;;;4988217;28;20026;-83
2022/12/25 09:29:03;;;;;;;10.90;3.88;;;9.90;99.90;;;;;;4958549;28;20038;-84
2022/12/25 09:31:29;;;;;;;10.55;3.85;;;9.90;99.90;;;;;;4974891;28;20023;-84
2022/12/25 09:33:56;;;;;;;6.90;3.58;;;10.00;99.90;;;;;;4960077;28;20022;-84
2022/12/25 09:36:23;;;;;;;9.30;3.53;;;10.00;99.90;;;;;;4982781;28;20054;-86
2022/12/25 09:38:49;;;;;;;7.35;3.65;;;10.00;99.90;;;;;;4990034;28;20011;-85
2022/12/25 09:41:30;;;;;;;8.55;3.70;;;10.00;99.90;;;;;;4997709;28;20054;-84
2022/12/25 09:44:14;;;;;;;10.50;3.30;;;10.00;99.90;;;;;;4987830;28;20105;-84
2022/12/25 09:46:49;;;;;;;7.88;3.30;;;10.00;99.90;;;;;;4982650;28;20026;-84
2022/12/25 09:49:21;;;;;;;8.65;3.50;;;10.00;99.90;;;;;;4996043;28;20026;-85
2022/12/25 09:51:55;;;;;;;10.70;3.20;;;10.00;99.90;;;;;;4988216;28;20023;-84
2022/12/25 09:54:45;;;;;;;8.65;3.08;;;10.00;99.90;;;;;;5007667;28;20019;-84
2022/12/25 09:57:12;;;;;;;10.18;3.58;;;10.00;99.90;;;;;;4974333;28;20018;-83
2022/12/25 09:59:38;;;;;;;8.75;3.42;;;10.00;99.90;;;;;;4974282;28;20170;-84
2022/12/25 10:02:28;;;;;;;10.00;3.35;;;10.10;99.90;;;;;;4958703;28;20034;-83
2022/12/25 10:05:20;;;;;;;6.68;3.58;;;10.10;99.90;;;;;;4974198;28;20023;-83
2022/12/25 10:08:10;;;;;;;10.23;3.85;;;10.10;99.90;;;;;;4973861;28;20019;-83
2022/12/25 10:11:11;;;;;;;13.97;4.70;;;10.10;99.90;;;;;;4975787;28;20030;-83
2022/12/25 10:13:54;;;;;;;9.23;3.67;;;10.10;99.90;;;;;;4978879;28;20022;-83
2022/12/25 10:16:44;;;;;;;9.43;3.80;;;10.20;99.90;;;;;;4977882;28;20114;-82
2022/12/25 10:19:42;;;;;;;9.87;4.00;;;10.10;99.90;;;;;;4994528;28;20118;-82
2022/12/25 10:22:26;;;;;;;10.30;3.85;;;10.20;99.90;;;;;;4986577;28;20124;-83
2022/12/25 10:24:54;;;;;;;6.95;3.45;;;10.20;99.90;;;;;;4997246;28;20466;-83
2022/12/25 10:27:33;;;;;;;10.93;4.30;;;10.20;99.90;;;;;;4996984;28;20573;-83
2022/12/25 10:30:00;;;;;;;9.68;4.50;;;10.20;99.90;;;;;;4996684;28;20023;-83
2022/12/25 10:32:26;;;;;;;11.93;4.28;;;10.20;99.90;;;;;;4997177;28;20122;-84
2022/12/25 10:34:52;;;;;;;7.88;4.15;;;10.20;99.90;;;;;;4966366;28;20466;-83
2022/12/25 10:37:18;;;;;;;9.18;3.97;;;10.20;99.90;;;;;;4995238;28;20106;-83
2022/12/25 10:39:44;;;;;;;7.47;4.45;;;10.20;99.90;;;;;;4999490;28;20047;-84
2022/12/25 10:42:25;;;;;;;8.68;4.40;;;10.20;99.90;;;;;;5009407;28;20529;-82
2022/12/25 10:45:02;;;;;;;13.95;4.38;;;10.30;99.90;;;;;;4996565;28;20073;-82
2022/12/25 10:47:31;;;;;;;9.43;4.05;;;10.30;99.90;;;;;;4997507;28;20371;-85
2022/12/25 10:49:59;;;;;;;8.90;4.30;;;10.30;99.90;;;;;;4996394;28;20221;-83
2022/12/25 10:52:27;;;;;;;7.75;4.20;;;10.30;99.90;;;;;;4996290;28;20022;-83
2022/12/25 10:54:53;;;;;;;9.55;4.53;;;10.40;99.90;;;;;;4997844;28;20018;-83
2022/12/25 10:57:22;;;;;;;10.02;4.53;;;10.40;99.90;;;;;;4996281;28;20030;-83
2022/12/25 10:59:56;;;;;;;8.65;4.90;;;10.40;99.90;;;;;;4996787;28;20073;-83
2022/12/25 11:02:27;;;;;;;10.65;4.78;;;10.40;99.90;;;;;;4997111;28;20058;-83
2022/12/25 11:05:01;;;;;;;;;;;10.40;99.90;;;;;;4991925;28;20150;-84
2022/12/25 11:07:27;;;;;;;11.00;6.43;;;10.40;99.90;;;;;;5019619;28;19906;-83
2022/12/25 11:10:05;;;;;;;11.35;6.18;;;10.40;99.90;;;;;;4992425;28;20019;-82
2022/12/25 11:12:35;;;;;;;13.32;6.10;;;10.40;99.90;;;;;;4976308;28;20022;-87
2022/12/25 11:15:04;;;;;;;12.40;5.80;;;10.40;99.90;;;;;;4984143;28;20023;-84
2022/12/25 11:17:30;;;;;;;13.40;5.85;;;10.40;99.90;;;;;;4996848;28;20054;-83
2022/12/25 11:20:01;;;;;;;14.93;6.35;;;10.40;99.90;;;;;;4979438;28;20129;-85
2022/12/25 11:22:28;;;;;;;17.87;6.60;;;10.40;99.90;;;;;;4994748;28;20042;-83
2022/12/25 11:24:54;;;;;;;11.50;5.57;;;10.40;99.90;;;;;;4995126;28;20280;-83
2022/12/25 11:27:22;;;;;;;12.55;5.70;;;10.40;99.90;;;;;;4996178;28;20030;-83
2022/12/25 11:30:06;;;;;;;11.90;6.30;;;10.40;99.90;;;;;;4992924;28;20038;-83
2022/12/25 11:32:40;;;;;;;11.52;5.50;;;10.40;99.90;;;;;;4997309;28;20022;-85
2022/12/25 11:35:17;;;;;;;12.13;5.53;;;10.40;99.90;;;;;;4995829;28;20152;-84
2022/12/25 11:37:53;;;;;;;13.70;6.32;;;10.30;99.90;;;;;;4979330;28;20026;-83
2022/12/25 11:40:27;;;;;;;10.77;5.85;;;10.30;99.90;;;;;;4975838;28;20046;-83
2022/12/25 11:43:18;;;;;;;12.80;6.15;;;10.30;99.90;;;;;;4991298;28;20032;-85
2022/12/25 11:45:53;;;;;;;14.25;6.65;;;10.30;99.90;;;;;;4997102;28;20018;-84
2022/12/25 11:48:54;;;;;;;13.75;6.25;;;10.30;99.90;;;;;;4995611;28;20018;-85
2022/12/25 11:51:22;;;;;;;;;;;10.30;99.90;;;;;;4984237;28;20101;-85
2022/12/25 11:53:57;;;;;;;17.30;6.88;;;10.30;99.90;;;;;;4978225;28;19906;-84
2022/12/25 11:56:27;;;;;;;17.80;8.02;;;10.20;99.90;;;;;;4993736;28;20160;-90
2022/12/25 11:58:52;;;;;;;18.23;7.88;;;10.20;99.90;;;;;;4995474;28;20022;-83
2022/12/25 12:01:28;;;;;;;16.60;7.78;;;10.20;99.90;;;;;;4996144;28;20119;-85
2022/12/25 12:03:54;;;;;;;15.77;6.80;;;10.10;99.90;;;;;;4995622;28;20042;-86
2022/12/25 12:06:44;;;;;;;12.95;6.55;;;10.20;99.90;;;;;;4995817;28;20474;-88
2022/12/25 12:09:23;;;;;;;12.52;5.90;;;10.10;99.90;;;;;;4996891;28;20022;-86
2022/12/25 12:12:02;;;;;;;10.75;6.63;;;10.20;99.90;;;;;;4995360;28;20018;-81
2022/12/25 12:14:48;;;;;;;10.85;5.60;;;10.10;99.90;;;;;;4995493;28;20477;-84
2022/12/25 12:17:17;;;;;;;15.50;6.85;;;10.20;99.90;;;;;;4994679;28;20114;-82
2022/12/25 12:19:43;;;;;;;16.52;6.47;;;10.10;99.90;;;;;;4995675;28;20522;-82
2022/12/25 12:22:26;;;;;;;12.30;6.10;;;10.20;99.90;;;;;;4994528;28;20118;-82
2022/12/25 12:25:00;;;;;;;10.68;6.47;;;10.20;99.90;;;;;;4994451;28;20019;-81
2022/12/25 12:27:31;;;;;;;14.70;7.18;;;10.20;99.90;;;;;;4995029;28;20451;-82
2022/12/25 12:29:58;;;;;;;13.88;7.00;;;10.10;99.90;;;;;;4994209;28;20022;-82
2022/12/25 12:32:32;;;;;;;14.80;6.85;;;10.20;99.90;;;;;;4992412;28;20022;-81
2022/12/25 12:35:04;;;;;;;14.25;7.30;;;10.10;99.90;;;;;;5006040;28;20030;-81
2022/12/25 12:37:34;;;;;;;12.07;6.20;;;10.20;99.90;;;;;;4994259;28;20029;-82
2022/12/25 12:40:00;;;;;;;12.10;6.82;;;10.20;99.90;;;;;;4994423;28;20184;-83
2022/12/25 12:42:37;;;;;;;14.15;7.35;;;10.20;99.90;;;;;;4995235;28;20545;-83
2022/12/25 12:45:14;;;;;;;18.80;7.45;;;10.20;99.90;;;;;;4994942;28;20018;-83
2022/12/25 12:47:46;;;;;;;10.85;6.53;;;10.20;99.90;;;;;;4988136;28;20040;-82
2022/12/25 12:50:29;;;;;;;15.07;7.38;;;10.30;99.90;;;;;;4991632;28;20030;-84
2022/12/25 12:52:55;;;;;;;15.48;7.13;;;10.30;99.90;;;;;;4978517;28;20080;-84
2022/12/25 12:55:32;;;;;;;12.98;6.50;;;10.20;99.90;;;;;;4994542;28;20018;-84
2022/12/25 12:58:03;;;;;;;13.02;7.18;;;10.20;99.90;;;;;;4975683;28;20085;-82
2022/12/25 13:00:42;;;;;;;13.35;6.90;;;10.20;99.90;;;;;;4974793;28;20029;-83
2022/12/25 13:03:16;;;;;;;19.85;7.40;;;10.30;99.90;;;;;;4975419;28;20027;-83
2022/12/25 13:06:07;;;;;;;17.10;8.05;;;10.30;99.90;;;;;;4985027;28;20011;-83
2022/12/25 13:08:39;;;;;;;12.90;7.25;;;10.30;99.90;;;;;;4986966;28;20058;-82
2022/12/25 13:11:26;;;;;;;18.33;7.80;;;10.30;99.90;;;;;;4985349;28;20053;-83
2022/12/25 13:13:55;;;;;;;16.98;7.47;;;10.30;99.90;;;;;;4974750;28;20126;-83
2022/12/25 13:16:41;;;;;;;15.23;8.40;;;10.30;99.90;;;;;;4975421;28;20041;-84
2022/12/25 13:19:15;;;;;;;20.02;9.13;;;10.30;99.90;;;;;;4978933;28;20019;-83
2022/12/25 13:21:51;;;;;;;16.67;8.75;;;10.30;99.90;;;;;;4983592;28;20026;-82
2022/12/25 13:24:20;;;;;;;18.13;8.57;;;10.30;99.90;;;;;;4995288;28;20007;-84
2022/12/25 13:26:46;;;;;;;15.88;8.20;;;10.30;99.90;;;;;;5014915;28;20081;-84
2022/12/25 13:29:31;;;;;;;19.60;8.45;;;10.30;99.90;;;;;;5010071;28;20423;-83
2022/12/25 13:31:58;;;;;;;15.10;8.23;;;10.40;99.90;;;;;;5008608;28;20014;-87
2022/12/25 13:34:34;;;;;;;16.67;8.50;;;10.30;99.90;;;;;;5016216;28;20010;-83
2022/12/25 13:37:13;;;;;;;16.55;8.80;;;10.30;99.90;;;;;;5005376;28;20019;-84
2022/12/25 13:40:03;;;;;;;13.70;8.27;;;10.30;99.90;;;;;;4994720;28;20045;-84
2022/12/25 13:42:31;;;;;;;20.15;9.75;;;10.30;99.90;;;;;;4980198;28;20403;-82
2022/12/25 13:45:21;;;;;;;14.70;9.07;;;10.30;99.90;;;;;;4994398;28;20426;-84
2022/12/25 13:47:48;;;;;;;16.75;9.27;;;10.40;99.90;;;;;;4994407;28;20050;-83
2022/12/25 13:50:33;;;;;;;17.70;9.68;;;10.40;99.90;;;;;;4974116;28;20113;-83
2022/12/25 13:53:25;;;;;;;19.35;9.40;;;10.40;99.90;;;;;;4957787;28;20058;-83
2022/12/25 13:55:53;;;;;;;22.25;10.77;;;10.40;99.90;;;;;;4970132;28;20054;-86
2022/12/25 13:58:27;;;;;;;20.10;9.48;;;10.40;99.90;;;;;;4990552;28;20046;-86
2022/12/25 14:00:55;;;;;;;18.23;10.38;;;10.40;99.90;;;;;;4990970;28;20055;-88
2022/12/25 14:03:22;;;;;;;17.20;9.75;;;10.40;99.90;;;;;;4975977;28;20118;-91
2022/12/25 14:05:59;;;;;;;18.13;11.48;;;10.40;99.90;;;;;;4980772;28;20022;-88
2022/12/25 14:08:30;;;;;;;23.35;12.32;;;10.40;99.90;;;;;;4986672;28;20525;-86
2022/12/25 14:10:57;;;;;;;19.48;11.55;;;10.40;99.90;;;;;;4988581;28;20026;-85
2022/12/25 14:13:26;;;;;;;19.30;10.70;;;10.40;99.90;;;;;;4992759;28;20459;-85
2022/12/25 14:15:53;;;;;;;14.88;10.32;;;10.50;99.90;;;;;;4984506;28;20069;-84
2022/12/25 14:18:21;;;;;;;18.00;10.20;;;10.50;99.90;;;;;;4974905;28;20057;-84
2022/12/25 14:21:05;;;;;;;18.05;9.65;;;10.50;99.90;;;;;;4992615;28;20038;-83
2022/12/25 14:23:48;;;;;;;20.02;10.48;;;10.50;99.90;;;;;;4992895;28;20029;-89
2022/12/25 14:26:24;;;;;;;17.33;9.93;;;10.50;99.90;;;;;;4992624;28;20307;-85
2022/12/25 14:28:51;;;;;;;19.23;10.50;;;10.50;99.90;;;;;;4993943;28;20019;-83
2022/12/25 14:31:18;;;;;;;15.93;10.38;;;10.50;99.90;;;;;;4995597;28;20093;-85
2022/12/25 14:33:45;;;;;;;17.95;10.98;;;10.50;99.90;;;;;;4993736;28;20031;-84
2022/12/25 14:36:12;;;;;;;20.10;10.93;;;10.60;99.90;;;;;;4992853;28;20019;-83
2022/12/25 14:38:40;;;;;;;21.63;12.77;;;10.50;99.90;;;;;;4992474;28;20027;-84
2022/12/25 14:41:36;;;;;;;19.83;11.88;;;10.60;99.90;;;;;;4990035;28;20038;-83
2022/12/25 14:44:05;;;;;;;22.02;11.57;;;10.60;99.90;;;;;;4993860;28;20065;-82
2022/12/25 14:46:32;;;;;;;27.33;12.77;;;10.60;99.90;;;;;;4992820;28;20021;-85
2022/12/25 14:49:03;;;;;;;23.00;13.38;;;10.60;99.90;;;;;;4992633;28;20063;-86